Time;durP1;ratioP1;P1;durP2;ratioP2;P2;SDS_P1;SDS_P2;PMS_P1;PMS_P2;Temp;Humidity;BMP_temperature;BMP_pressure;BME280_temperature;BME280_humidity;BME280_pressure;Samples;Min_cycle;Max_cycle;Signal;HPM_P1;HPM_P2
2023/08/31 00:01:04;;;;;;;5.43;4.93;;;;;;;16.59;87.57;99985.50;4928129;29;20416;-69
2023/08/31 00:03:35;;;;;;;6.77;5.30;;;;;;;16.45;88.73;99990.56;4935737;29;20488;-70
2023/08/31 00:06:07;;;;;;;5.63;5.10;;;;;;;16.50;88.67;99987.88;4935529;29;20567;-69
2023/08/31 00:08:37;;;;;;;5.30;4.80;;;;;;;16.46;89.25;99989.47;4950817;28;20415;-69
2023/08/31 00:11:06;;;;;;;5.43;5.03;;;;;;;16.52;88.91;99991.16;4926411;29;20517;-69
2023/08/31 00:13:38;;;;;;;5.10;4.70;;;;;;;16.53;88.90;99992.81;4934326;29;20824;-67
2023/08/31 00:16:09;;;;;;;4.93;4.53;;;;;;;16.47;89.18;99988.38;4938058;29;20411;-68
2023/08/31 00:18:40;;;;;;;5.57;5.07;;;;;;;16.53;88.86;99987.34;4935769;29;20415;-68
2023/08/31 00:21:09;;;;;;;5.50;5.00;;;;;;;16.51;89.06;99992.22;4942726;28;20808;-68
2023/08/31 00:23:39;;;;;;;5.03;4.50;;;;;;;16.49;89.58;99997.16;4934665;29;20468;-69
2023/08/31 00:26:09;;;;;;;5.60;5.20;;;;;;;16.49;89.58;99992.53;4935069;29;20476;-68
2023/08/31 00:28:42;;;;;;;5.47;4.97;;;;;;;16.39;90.38;99983.44;4932932;28;20464;-68
2023/08/31 00:31:11;;;;;;;5.03;4.63;;;;;;;16.26;91.23;99983.88;4929655;29;20575;-68
2023/08/31 00:33:43;;;;;;;5.53;5.10;;;;;;;16.23;91.92;99976.19;4934782;29;20949;-69
2023/08/31 00:36:12;;;;;;;5.63;4.70;;;;;;;16.27;91.42;99971.84;4932423;29;20936;-68
2023/08/31 00:38:42;;;;;;;5.70;5.07;;;;;;;16.31;91.68;99967.53;4933155;29;20480;-68
2023/08/31 00:41:12;;;;;;;4.60;4.20;;;;;;;16.15;92.72;99969.31;4933049;29;20976;-69
2023/08/31 00:43:41;;;;;;;10.13;4.50;;;;;;;16.06;93.56;99965.44;4955989;28;20469;-67
2023/08/31 00:46:11;;;;;;;5.13;4.70;;;;;;;16.25;92.55;99976.78;4935346;28;20411;-68
2023/08/31 00:48:42;;;;;;;5.60;5.10;;;;;;;16.35;92.29;99985.03;4957807;28;20510;-68
2023/08/31 00:51:12;;;;;;;5.03;4.53;;;;;;;16.27;92.86;99980.88;4954512;28;20507;-69
2023/08/31 00:53:42;;;;;;;5.20;4.70;;;;;;;16.21;93.63;99983.84;4934889;29;22429;-69
2023/08/31 00:56:13;;;;;;;5.47;4.77;;;;;;;16.08;94.67;99966.81;4958446;28;20982;-68
2023/08/31 00:58:42;;;;;;;5.40;5.00;;;;;;;16.04;95.17;99968.41;4936526;29;20757;-68
2023/08/31 01:01:19;;;;;;;4.83;4.43;;;;;;;15.90;96.56;99982.75;4930998;29;20444;-69
2023/08/31 01:04:00;;;;;;;6.27;5.20;;;;;;;15.95;96.94;99980.91;4931502;29;20494;-69
2023/08/31 01:06:42;;;;;;;6.80;6.20;;;;;;;16.04;96.15;99975.78;4940575;28;20431;-68
2023/08/31 01:12:52;;;;;;;6.17;5.57;;;;;;;15.85;97.79;99983.53;4929968;29;20566;-68
2023/08/31 01:15:21;;;;;;;5.43;4.90;;;;;;;15.89;98.60;99992.00;4933599;29;20437;-69
2023/08/31 01:17:53;;;;;;;7.90;7.20;;;;;;;15.84;99.20;99990.06;4930071;29;21025;-68
2023/08/31 01:20:35;;;;;;;7.53;6.87;;;;;;;15.90;99.68;99996.38;4934035;29;20431;-67
2023/08/31 01:23:07;;;;;;;6.67;6.07;;;;;;;15.82;100.00;100003.16;4941427;29;20505;-68
2023/08/31 01:25:40;;;;;;;8.03;7.33;;;;;;;15.70;100.00;100005.19;4952749;28;20816;-68
2023/08/31 01:28:10;;;;;;;7.63;6.93;;;;;;;15.67;100.00;100000.25;4952333;28;20530;-69
2023/08/31 01:30:40;;;;;;;8.50;6.00;;;;;;;15.64;100.00;100004.31;4943533;29;20485;-68
2023/08/31 01:33:09;;;;;;;6.40;5.90;;;;;;;15.70;100.00;100013.38;4937387;29;20407;-68
2023/08/31 01:35:44;;;;;;;7.10;6.33;;;;;;;15.73;100.00;100012.06;4939987;29;20824;-69
2023/08/31 01:38:18;;;;;;;7.03;6.40;;;;;;;15.67;100.00;100013.91;4934608;29;20463;-69
2023/08/31 01:40:54;;;;;;;6.40;5.90;;;;;;;15.70;100.00;100021.56;4952798;28;20490;-68
2023/08/31 01:43:24;;;;;;;6.80;5.50;;;;;;;15.55;100.00;100018.66;4951616;29;20472;-68
2023/08/31 01:45:55;;;;;;;5.60;5.10;;;;;;;15.61;100.00;100017.66;4939254;29;20441;-68
2023/08/31 01:48:25;;;;;;;6.67;5.97;;;;;;;15.59;100.00;100022.50;4947857;29;20462;-68
2023/08/31 01:50:54;;;;;;;6.07;5.57;;;;;;;15.53;100.00;100023.56;4949429;28;21017;-67
2023/08/31 01:53:23;;;;;;;8.30;4.77;;;;;;;15.40;100.00;100021.19;4947335;29;20457;-68
2023/08/31 01:55:55;;;;;;;6.57;5.50;;;;;;;15.38;100.00;100018.72;4942059;29;20444;-68
2023/08/31 01:58:24;;;;;;;5.40;4.90;;;;;;;15.30;100.00;100021.88;4937237;29;20448;-66
2023/08/31 02:00:53;;;;;;;6.10;5.50;;;;;;;15.20;100.00;100021.78;4936915;29;20430;-66
2023/08/31 02:03:23;;;;;;;5.53;4.30;;;;;;;15.09;100.00;100018.09;4939174;29;20842;-67
2023/08/31 02:05:52;;;;;;;4.67;4.33;;;;;;;15.11;100.00;100026.81;4946245;29;20462;-68
2023/08/31 02:08:22;;;;;;;3.87;3.47;;;;;;;15.02;100.00;100025.63;4943851;29;20488;-67
2023/08/31 02:10:54;;;;;;;3.83;3.43;;;;;;;14.97;100.00;100044.63;4939391;29;20812;-68
2023/08/31 02:13:24;;;;;;;3.60;3.30;;;;;;;14.93;100.00;100040.75;4941945;29;20892;-68
2023/08/31 02:15:54;;;;;;;3.80;3.50;;;;;;;14.88;100.00;100040.69;4950404;28;20495;-68
2023/08/31 02:18:24;;;;;;;4.30;3.90;;;;;;;14.70;100.00;100049.97;4935767;29;20508;-67
2023/08/31 02:20:54;;;;;;;3.93;3.50;;;;;;;14.60;100.00;100059.88;4940282;29;20423;-67
2023/08/31 02:23:23;;;;;;;4.40;3.00;;;;;;;14.49;100.00;100060.78;4948254;29;21017;-69
2023/08/31 02:25:54;;;;;;;4.30;3.90;;;;;;;14.39;100.00;100045.09;4954516;29;20530;-69
2023/08/31 02:28:23;;;;;;;3.70;3.40;;;;;;;14.31;100.00;100049.03;4959706;29;20445;-66
2023/08/31 02:31:00;;;;;;;3.37;3.07;;;;;;;14.32;100.00;100053.41;4950929;29;20576;-66
2023/08/31 02:33:32;;;;;;;3.47;3.13;;;;;;;14.19;100.00;100047.44;4957404;29;20414;-68
2023/08/31 02:36:01;;;;;;;4.30;3.33;;;;;;;14.20;100.00;100039.03;4942996;29;20806;-68
2023/08/31 02:38:30;;;;;;;3.90;3.50;;;;;;;14.34;100.00;100053.16;4945162;29;20433;-69
2023/08/31 02:41:00;;;;;;;5.20;3.60;;;;;;;14.27;100.00;100056.06;4943072;29;20952;-66
2023/08/31 02:43:30;;;;;;;3.73;3.33;;;;;;;14.26;100.00;100059.00;4953127;29;20806;-70
2023/08/31 02:46:03;;;;;;;4.50;3.57;;;;;;;14.18;100.00;100056.69;4950121;29;20464;-69
2023/08/31 02:48:34;;;;;;;5.03;3.90;;;;;;;14.27;100.00;100061.50;4952545;29;20471;-70
2023/08/31 02:51:04;;;;;;;3.83;3.40;;;;;;;14.29;100.00;100063.94;4941503;29;20451;-68
2023/08/31 02:53:33;;;;;;;4.13;3.50;;;;;;;14.13;100.00;100060.16;4957447;29;20504;-67
2023/08/31 02:56:04;;;;;;;3.30;3.00;;;;;;;14.18;100.00;100062.97;4972228;28;20527;-69
2023/08/31 02:58:33;;;;;;;4.27;3.87;;;;;;;14.08;100.00;100064.69;4949935;29;20451;-68
2023/08/31 03:01:11;;;;;;;4.20;3.80;;;;;;;14.13;100.00;100060.16;4950690;29;20453;-67
2023/08/31 03:03:46;;;;;;;4.50;4.10;;;;;;;14.09;100.00;100064.41;4964209;28;20501;-68
2023/08/31 03:06:16;;;;;;;3.67;3.27;;;;;;;14.03;100.00;100070.88;4953988;28;20514;-69
2023/08/31 03:08:45;;;;;;;4.27;3.87;;;;;;;14.02;100.00;100058.31;4950892;29;20502;-68
2023/08/31 03:11:16;;;;;;;3.40;3.10;;;;;;;14.05;100.00;100063.25;4945947;29;20554;-69
2023/08/31 03:13:46;;;;;;;4.60;3.80;;;;;;;14.12;100.00;100072.13;4948901;29;20461;-67
2023/08/31 03:16:15;;;;;;;3.03;2.73;;;;;;;14.14;100.00;100077.28;4946769;29;20449;-68
2023/08/31 03:18:44;;;;;;;3.13;2.77;;;;;;;14.00;100.00;100071.34;4945638;29;20436;-67
2023/08/31 03:21:14;;;;;;;3.73;3.43;;;;;;;14.00;100.00;100076.78;4952033;29;20480;-69
2023/08/31 03:23:43;;;;;;;4.23;3.80;;;;;;;13.99;100.00;100071.59;4964982;28;20435;-68
2023/08/31 03:26:15;;;;;;;4.87;4.37;;;;;;;13.99;100.00;100069.66;4947482;29;20407;-69
2023/08/31 03:28:45;;;;;;;4.07;3.70;;;;;;;13.99;100.00;100086.00;4951225;29;20466;-69
2023/08/31 03:31:14;;;;;;;4.10;3.07;;;;;;;13.87;100.00;100082.50;4958081;29;20457;-69
2023/08/31 03:33:44;;;;;;;3.83;3.47;;;;;;;14.00;100.00;100086.81;4963079;28;20470;-68
2023/08/31 03:36:13;;;;;;;3.57;3.27;;;;;;;13.99;100.00;100085.19;4938132;28;20444;-69
2023/08/31 03:38:43;;;;;;;4.83;3.90;;;;;;;13.99;100.00;100088.72;4952963;28;20457;-70
2023/08/31 03:41:13;;;;;;;4.90;4.40;;;;;;;13.92;100.00;100085.34;4944024;29;20506;-68
2023/08/31 03:43:43;;;;;;;5.77;3.97;;;;;;;13.79;100.00;100082.91;4948725;29;20441;-69
2023/08/31 03:46:12;;;;;;;6.03;4.80;;;;;;;13.93;100.00;100095.97;4938772;29;20418;-68
2023/08/31 03:48:42;;;;;;;4.23;3.83;;;;;;;13.95;100.00;100090.28;4943809;28;20989;-68
2023/08/31 03:51:12;;;;;;;6.43;4.13;;;;;;;14.10;100.00;100082.41;4955451;28;20917;-69
2023/08/31 03:53:41;;;;;;;7.30;4.27;;;;;;;14.14;100.00;100088.16;4935633;29;20433;-69
2023/08/31 03:56:11;;;;;;;6.03;4.03;;;;;;;14.12;100.00;100099.31;4951314;28;20437;-69
2023/08/31 03:58:42;;;;;;;3.70;3.40;;;;;;;14.09;100.00;100102.50;4934371;29;20532;-69
2023/08/31 04:01:14;;;;;;;4.80;3.90;;;;;;;14.24;100.00;100100.06;4940899;28;20431;-69
2023/08/31 04:03:44;;;;;;;6.40;4.70;;;;;;;14.22;100.00;100101.41;4936359;29;20431;-69
2023/08/31 04:06:13;;;;;;;4.93;4.43;;;;;;;14.22;100.00;100110.38;4936989;29;20467;-68
2023/08/31 04:08:42;;;;;;;4.37;3.97;;;;;;;14.19;100.00;100112.75;4942414;29;20528;-68
2023/08/31 04:11:11;;;;;;;5.03;4.60;;;;;;;14.21;100.00;100106.00;4938480;29;20482;-69
2023/08/31 04:14:09;;;;;;;7.47;5.30;;;;;;;14.09;100.00;100110.66;4937093;28;20424;-70
2023/08/31 04:16:38;;;;;;;9.60;6.90;;;;;;;14.19;100.00;100115.47;4955119;28;20451;-69
2023/08/31 04:19:07;;;;;;;7.70;7.00;;;;;;;14.18;100.00;100113.84;4937109;29;21002;-69
2023/08/31 04:21:37;;;;;;;7.27;6.57;;;;;;;14.10;100.00;100117.78;4941654;29;20572;-69
2023/08/31 04:24:07;;;;;;;9.17;8.30;;;;;;;14.12;100.00;100117.53;4950722;28;20439;-70
2023/08/31 04:26:36;;;;;;;9.87;6.53;;;;;;;14.08;100.00;100119.94;4953493;28;20427;-69
2023/08/31 04:29:06;;;;;;;8.30;7.50;;;;;;;14.07;100.00;100114.72;4922073;29;20956;-68
2023/08/31 04:31:37;;;;;;;9.10;8.20;;;;;;;14.08;100.00;100119.94;4950365;29;20487;-68
2023/08/31 04:34:07;;;;;;;9.50;7.00;;;;;;;14.14;100.00;100120.81;4941467;29;20419;-69
2023/08/31 04:36:36;;;;;;;8.90;7.97;;;;;;;14.17;100.00;100120.34;4955929;28;20423;-68
2023/08/31 04:39:07;;;;;;;8.57;7.70;;;;;;;14.21;100.00;100127.78;4934851;29;20460;-69
2023/08/31 04:41:36;;;;;;;8.70;7.90;;;;;;;14.12;100.00;100123.81;4952284;28;20446;-70
2023/08/31 04:44:05;;;;;;;8.37;7.67;;;;;;;14.23;100.00;100133.00;4933605;29;20517;-69
2023/08/31 04:46:36;;;;;;;9.50;8.50;;;;;;;14.25;100.00;100128.94;4938562;29;20485;-69
2023/08/31 04:49:05;;;;;;;11.07;9.13;;;;;;;14.15;100.00;100125.19;4935495;29;20427;-67
2023/08/31 04:51:39;;;;;;;9.80;8.80;;;;;;;14.20;100.00;100131.56;4927727;29;20534;-67
2023/08/31 04:54:08;;;;;;;12.07;10.70;;;;;;;14.20;100.00;100131.56;4938116;29;20459;-69
2023/08/31 04:56:39;;;;;;;9.97;8.97;;;;;;;14.20;100.00;100137.00;4959044;28;20514;-68
2023/08/31 04:59:08;;;;;;;12.07;10.87;;;;;;;14.12;100.00;100137.41;4935959;29;20496;-69
2023/08/31 05:01:38;;;;;;;12.00;10.93;;;;;;;14.21;100.00;100133.22;4934779;29;20468;-70
2023/08/31 05:04:08;;;;;;;11.00;9.90;;;;;;;14.25;100.00;100142.53;4930820;29;20463;-70
2023/08/31 05:06:37;;;;;;;11.80;10.30;;;;;;;14.29;100.00;100132.81;4941861;29;20439;-69
2023/08/31 05:09:07;;;;;;;12.07;10.40;;;;;;;14.27;100.00;100137.69;4947934;28;20487;-69
2023/08/31 05:11:36;;;;;;;11.90;10.70;;;;;;;14.17;100.00;100132.06;4954627;28;20446;-68
2023/08/31 05:14:05;;;;;;;11.40;10.20;;;;;;;14.35;100.00;100137.28;4929563;29;20499;-69
2023/08/31 05:16:35;;;;;;;13.50;10.03;;;;;;;14.56;100.00;100137.69;4937106;29;20574;-68
2023/08/31 05:19:06;;;;;;;12.07;10.87;;;;;;;14.59;100.00;100139.91;4924833;29;21035;-68
2023/08/31 05:21:35;;;;;;;12.93;11.63;;;;;;;14.69;100.00;100134.63;4935584;29;20519;-69
2023/08/31 05:24:05;;;;;;;11.43;10.17;;;;;;;14.66;100.00;100130.50;4950425;28;20608;-68
2023/08/31 05:26:34;;;;;;;10.83;9.83;;;;;;;14.78;100.00;100138.56;4945576;29;20431;-68
2023/08/31 05:29:05;;;;;;;11.77;10.57;;;;;;;14.90;100.00;100141.22;4951167;29;20456;-69
2023/08/31 05:31:34;;;;;;;10.93;9.80;;;;;;;14.92;100.00;100156.25;4957029;29;20447;-68
2023/08/31 05:34:05;;;;;;;11.97;10.47;;;;;;;14.87;100.00;100153.44;4954634;29;20429;-69
2023/08/31 05:36:34;;;;;;;11.60;10.40;;;;;;;14.79;100.00;100157.41;4967182;28;20432;-67
2023/08/31 05:39:04;;;;;;;12.73;10.83;;;;;;;14.78;100.00;100160.38;4952796;28;20408;-69
2023/08/31 05:41:34;;;;;;;12.57;11.37;;;;;;;14.73;100.00;100168.44;4955746;28;20460;-69
2023/08/31 05:44:04;;;;;;;10.83;9.73;;;;;;;14.72;100.00;100166.78;4939204;29;20478;-68
2023/08/31 05:46:33;;;;;;;15.20;12.10;;;;;;;14.80;100.00;100174.56;4944410;29;20443;-69
2023/08/31 05:49:02;;;;;;;12.37;11.20;;;;;;;14.81;100.00;100183.56;4951545;28;20434;-69
2023/08/31 05:51:33;;;;;;;12.67;10.87;;;;;;;14.80;100.00;100174.56;4939978;29;20500;-68
2023/08/31 05:54:02;;;;;;;12.13;10.60;;;;;;;14.72;100.00;100180.41;4956917;28;20435;-68
2023/08/31 05:56:32;;;;;;;15.50;11.73;;;;;;;14.74;100.00;100186.44;4954379;29;20423;-69
2023/08/31 05:59:02;;;;;;;11.97;10.80;;;;;;;14.79;100.00;100181.91;4968618;28;20507;-68
2023/08/31 06:01:31;;;;;;;12.87;11.67;;;;;;;14.92;100.00;100185.38;4959647;28;20504;-69
2023/08/31 06:04:00;;;;;;;12.50;11.23;;;;;;;14.97;100.00;100183.56;4942855;29;20418;-69
2023/08/31 06:06:30;;;;;;;12.50;10.90;;;;;;;15.04;100.00;100181.50;4944893;29;20464;-68
2023/08/31 06:09:00;;;;;;;12.90;11.00;;;;;;;15.03;100.00;100185.31;4935917;29;20772;-69
2023/08/31 06:11:30;;;;;;;10.63;9.63;;;;;;;15.27;100.00;100190.56;4934155;29;20471;-68
2023/08/31 06:13:59;;;;;;;11.63;10.50;;;;;;;15.34;100.00;100202.13;4940044;29;20541;-68
2023/08/31 06:16:28;;;;;;;11.47;9.00;;;;;;;15.32;100.00;100198.81;4940560;29;20414;-69
2023/08/31 06:18:57;;;;;;;10.97;9.87;;;;;;;15.34;100.00;100199.41;4934949;29;20445;-68
2023/08/31 06:21:26;;;;;;;11.83;10.70;;;;;;;15.32;100.00;100205.09;4936401;29;20469;-68
2023/08/31 06:23:55;;;;;;;16.50;11.03;;;;;;;15.31;100.00;100211.63;4938865;29;20422;-69
2023/08/31 06:26:26;;;;;;;11.97;10.80;;;;;;;15.31;100.00;100208.06;4935141;29;20487;-68
2023/08/31 06:28:55;;;;;;;12.40;11.13;;;;;;;15.27;100.00;100206.91;4951871;28;20438;-69
2023/08/31 06:31:25;;;;;;;12.10;9.70;;;;;;;15.39;100.00;100215.84;4951212;28;20458;-68
2023/08/31 06:33:54;;;;;;;10.77;9.77;;;;;;;15.54;100.00;100218.81;4939518;29;20530;-69
2023/08/31 06:36:24;;;;;;;12.63;10.10;;;;;;;15.72;100.00;100220.44;4938981;29;20817;-68
2023/08/31 06:38:53;;;;;;;12.27;11.00;;;;;;;15.70;100.00;100212.47;4950200;28;20427;-68
2023/08/31 06:41:23;;;;;;;15.97;11.20;;;;;;;15.59;100.00;100219.69;4938035;29;20597;-68
2023/08/31 06:44:09;;;;;;;12.03;10.93;;;;;;;15.84;100.00;100224.69;4934716;29;20428;-68
2023/08/31 06:46:39;;;;;;;12.23;11.00;;;;;;;16.00;100.00;100218.34;4935285;29;20441;-68
2023/08/31 06:49:09;;;;;;;12.80;11.40;;;;;;;16.24;100.00;100229.00;4942104;28;20424;-69
2023/08/31 06:51:38;;;;;;;10.63;9.50;;;;;;;16.33;99.16;100232.91;4930663;29;20447;-69
2023/08/31 06:54:07;;;;;;;12.90;11.47;;;;;;;16.32;98.46;100236.72;4948494;28;20430;-68
2023/08/31 06:56:37;;;;;;;11.90;10.70;;;;;;;16.43;97.65;100233.03;4936440;29;20477;-69
2023/08/31 06:59:06;;;;;;;11.70;10.60;;;;;;;16.54;97.49;100245.72;4933607;29;20432;-68
2023/08/31 07:01:37;;;;;;;9.93;9.00;;;;;;;16.74;94.76;100240.50;4943480;28;20498;-68
2023/08/31 07:04:07;;;;;;;10.60;8.97;;;;;;;16.85;93.44;100242.22;4930859;29;20444;-68
2023/08/31 07:06:37;;;;;;;10.90;9.80;;;;;;;16.90;93.12;100239.53;4938702;29;20532;-69
2023/08/31 07:09:08;;;;;;;10.00;9.10;;;;;;;16.86;93.25;100246.63;4939223;28;20422;-71
2023/08/31 07:11:37;;;;;;;12.13;9.00;;;;;;;16.80;93.97;100244.09;4944259;28;20962;-68
2023/08/31 07:14:07;;;;;;;11.50;10.50;;;;;;;16.65;93.64;100249.44;4954368;28;20506;-68
2023/08/31 07:16:37;;;;;;;11.63;9.93;;;;;;;16.31;93.67;100246.00;4935402;29;20437;-69
2023/08/31 07:19:07;;;;;;;10.23;8.03;;;;;;;16.34;94.07;100250.97;4940784;29;20483;-69
2023/08/31 07:21:36;;;;;;;9.50;7.97;;;;;;;16.21;92.89;100252.19;4935024;29;20458;-68
2023/08/31 07:24:06;;;;;;;12.70;8.80;;;;;;;15.96;94.03;100252.69;4941354;28;20831;-68
2023/08/31 07:26:35;;;;;;;11.07;7.80;;;;;;;16.07;94.22;100262.63;4953214;28;20439;-68
2023/08/31 07:29:07;;;;;;;8.60;7.70;;;;;;;15.99;94.30;100265.81;4938487;29;20439;-69
2023/08/31 07:31:37;;;;;;;8.63;6.63;;;;;;;16.13;93.92;100270.88;4952028;28;20805;-68
2023/08/31 07:34:07;;;;;;;9.70;8.13;;;;;;;16.19;93.16;100258.97;4938523;29;20411;-68
2023/08/31 07:36:36;;;;;;;11.50;7.57;;;;;;;16.40;92.94;100271.78;4935828;29;20456;-68
2023/08/31 07:39:05;;;;;;;8.47;7.67;;;;;;;16.51;90.76;100273.53;4955251;28;20452;-68
2023/08/31 07:41:35;;;;;;;8.43;7.53;;;;;;;16.78;89.50;100285.34;4937492;28;20437;-69
2023/08/31 07:44:04;;;;;;;7.60;6.70;;;;;;;16.79;86.71;100287.00;4953432;28;20540;-68
2023/08/31 07:46:35;;;;;;;13.00;7.83;;;;;;;16.75;87.81;100291.31;4933883;29;20519;-67
2023/08/31 07:49:06;;;;;;;9.57;7.60;;;;;;;16.50;87.84;100291.03;4934865;29;20452;-68
2023/08/31 07:51:35;;;;;;;7.33;6.63;;;;;;;16.49;88.23;100297.56;4935463;29;20817;-68
2023/08/31 07:54:04;;;;;;;9.33;6.87;;;;;;;16.37;87.30;100288.66;4954243;28;20445;-68
2023/08/31 07:56:34;;;;;;;6.40;5.77;;;;;;;16.45;86.78;100301.88;4936773;29;20470;-67
2023/08/31 07:59:04;;;;;;;8.10;6.20;;;;;;;16.41;86.43;100295.28;4933821;29;20410;-69
2023/08/31 08:01:40;;;;;;;10.33;5.90;;;;;;;16.39;86.05;100309.19;4939928;28;20470;-67
2023/08/31 08:04:11;;;;;;;6.87;5.27;;;;;;;16.50;86.18;100308.25;4937157;29;20427;-69
2023/08/31 08:06:41;;;;;;;10.10;5.20;;;;;;;16.90;84.39;100313.34;4941612;29;20459;-68
2023/08/31 08:09:10;;;;;;;13.90;5.30;;;;;;;17.46;80.77;100315.78;4953447;28;20433;-68
2023/08/31 08:11:39;;;;;;;5.67;4.50;;;;;;;17.78;78.02;100322.06;4936482;28;20504;-68
2023/08/31 08:14:08;;;;;;;4.80;3.70;;;;;;;17.52;76.50;100312.81;4934742;29;20980;-69
2023/08/31 08:16:38;;;;;;;5.50;3.97;;;;;;;17.83;76.14;100327.56;4929098;29;20457;-68
2023/08/31 08:19:36;;;;;;;5.37;4.60;;;;;;;17.81;75.77;100327.81;4937073;29;20448;-68
2023/08/31 08:22:06;;;;;;;8.97;4.60;;;;;;;17.76;75.16;100327.81;4930712;29;20464;-68
2023/08/31 08:24:35;;;;;;;9.33;5.13;;;;;;;17.98;74.61;100329.56;4936633;29;20511;-68
2023/08/31 08:27:05;;;;;;;5.00;3.77;;;;;;;18.23;74.02;100329.72;4951582;28;20957;-68
2023/08/31 08:29:34;;;;;;;6.30;4.17;;;;;;;17.89;72.65;100322.94;4937059;29;20418;-66
2023/08/31 08:32:03;;;;;;;7.07;3.97;;;;;;;18.00;75.03;100321.94;4929896;29;20451;-67
2023/08/31 08:34:32;;;;;;;6.20;5.60;;;;;;;18.25;72.49;100316.56;4934989;28;20436;-68
2023/08/31 08:37:03;;;;;;;7.10;5.40;;;;;;;18.70;71.83;100321.44;4957517;28;20407;-68
2023/08/31 08:39:33;;;;;;;8.37;3.60;;;;;;;18.67;71.05;100314.59;4931520;29;20454;-67
2023/08/31 08:42:08;;;;;;;5.03;3.80;;;;;;;19.00;69.04;100323.44;4947345;28;20470;-68
2023/08/31 08:44:38;;;;;;;5.70;3.63;;;;;;;18.91;68.77;100319.59;4936852;29;20397;-67
2023/08/31 08:47:08;;;;;;;4.57;3.00;;;;;;;19.00;67.83;100317.97;4941286;29;20524;-72
2023/08/31 08:49:38;;;;;;;7.33;2.50;;;;;;;18.87;65.86;100318.50;4940670;29;20407;-72
2023/08/31 08:52:08;;;;;;;4.20;2.40;;;;;;;18.57;66.95;100325.53;4943597;29;20441;-69
2023/08/31 08:54:38;;;;;;;5.60;2.00;;;;;;;18.38;66.30;100320.75;4937595;29;20437;-71
2023/08/31 08:57:08;;;;;;;2.17;1.80;;;;;;;17.79;66.51;100324.53;4928581;29;20906;-69
2023/08/31 08:59:37;;;;;;;3.33;1.97;;;;;;;17.90;67.52;100328.16;4956167;28;20557;-68
2023/08/31 09:02:09;;;;;;;3.70;2.13;;;;;;;17.78;68.62;100322.88;4953924;28;20451;-70
2023/08/31 09:04:38;;;;;;;3.37;2.30;;;;;;;17.78;68.18;100325.63;4951451;28;20523;-67
2023/08/31 09:07:08;;;;;;;7.37;2.50;;;;;;;18.11;68.09;100331.84;4939779;29;20451;-68
2023/08/31 09:09:51;;;;;;;6.53;2.27;;;;;;;18.45;66.66;100321.31;4939266;28;20441;-69
2023/08/31 09:12:21;;;;;;;4.40;2.90;;;;;;;19.15;64.23;100325.41;4932921;29;20487;-70
2023/08/31 09:15:01;;;;;;;5.83;2.07;;;;;;;19.33;60.74;100316.63;4951307;28;20416;-68
2023/08/31 09:17:40;;;;;;;3.87;2.13;;;;;;;19.52;61.06;100321.31;4933903;29;20448;-69
2023/08/31 09:20:10;;;;;;;5.80;2.07;;;;;;;19.32;60.14;100315.81;4937490;29;20422;-69
2023/08/31 09:22:45;;;;;;;4.20;2.30;;;;;;;19.36;62.15;100325.16;4950235;28;20952;-68
2023/08/31 09:25:14;;;;;;;3.80;3.00;;;;;;;19.63;61.41;100332.31;4950106;28;20414;-69
2023/08/31 09:27:45;;;;;;;4.40;2.70;;;;;;;19.62;60.05;100327.91;4955912;28;20477;-70
2023/08/31 09:30:14;;;;;;;4.37;2.03;;;;;;;19.11;61.59;100330.59;4934270;29;20440;-69
2023/08/31 09:32:44;;;;;;;6.17;2.47;;;;;;;18.58;62.31;100343.63;4940743;28;20460;-68
2023/08/31 09:35:13;;;;;;;4.90;2.43;;;;;;;18.16;64.25;100329.97;4939666;28;20458;-68
2023/08/31 09:38:02;;;;;;;3.60;2.27;;;;;;;18.29;64.77;100338.78;4932227;29;20444;-69
2023/08/31 09:40:31;;;;;;;4.73;2.23;;;;;;;18.91;63.83;100339.63;4939421;29;20922;-69
2023/08/31 09:43:00;;;;;;;4.67;2.67;;;;;;;19.22;62.71;100335.00;4940663;29;20749;-70
2023/08/31 09:45:32;;;;;;;4.90;2.67;;;;;;;19.88;59.90;100318.56;4933860;29;20410;-69
2023/08/31 09:48:16;;;;;;;7.03;2.60;;;;;;;20.01;59.95;100320.72;4957169;28;20547;-70
2023/08/31 09:50:46;;;;;;;4.93;2.60;;;;;;;20.62;58.91;100334.28;4938499;29;20410;-70
2023/08/31 09:53:18;;;;;;;5.30;2.27;;;;;;;20.67;56.96;100323.28;4944585;29;20438;-68
2023/08/31 09:55:49;;;;;;;5.40;3.00;;;;;;;20.52;56.38;100323.34;4939112;29;20529;-69
2023/08/31 09:58:21;;;;;;;5.60;2.80;;;;;;;20.95;56.81;100317.06;4939831;28;20424;-69
2023/08/31 10:00:52;;;;;;;4.77;2.37;;;;;;;20.93;54.62;100308.25;4939883;29;20938;-69
2023/08/31 10:03:22;;;;;;;3.17;2.17;;;;;;;20.49;54.87;100310.97;4938245;29;20499;-68
2023/08/31 10:05:52;;;;;;;4.60;1.83;;;;;;;20.11;54.88;100309.72;4937625;29;20465;-70
2023/08/31 10:08:24;;;;;;;2.70;1.70;;;;;;;20.20;55.63;100315.44;4942729;29;20468;-69
2023/08/31 10:10:57;;;;;;;7.33;5.97;;;;;;;20.29;53.90;100316.50;4956712;28;20474;-69
2023/08/31 10:13:27;;;;;;;3.20;1.90;;;;;;;20.34;53.27;100322.03;4942601;29;20870;-69
2023/08/31 10:15:57;;;;;;;6.30;2.30;;;;;;;20.28;53.94;100323.94;4944516;29;20415;-70
2023/08/31 10:18:27;;;;;;;5.67;2.80;;;;;;;20.09;54.52;100320.13;4950793;28;20420;-68
2023/08/31 10:20:57;;;;;;;4.77;3.07;;;;;;;20.01;53.64;100309.72;4944457;28;20861;-70
2023/08/31 10:23:29;;;;;;;2.53;2.33;;;;;;;20.17;53.23;100307.78;4936466;29;20407;-69
2023/08/31 10:26:03;;;;;;;2.90;2.00;;;;;;;20.42;52.86;100312.38;4931818;29;20535;-69
2023/08/31 10:28:41;;;;;;;2.83;1.60;;;;;;;20.22;53.16;100324.25;4953001;28;20543;-70
2023/08/31 10:31:17;;;;;;;5.07;1.93;;;;;;;20.06;54.95;100328.13;4943110;29;20455;-69
2023/08/31 10:33:47;;;;;;;5.47;2.30;;;;;;;19.47;57.65;100332.31;4946764;29;20472;-69
2023/08/31 10:36:17;;;;;;;2.60;1.93;;;;;;;19.41;58.80;100346.28;4941243;29;20503;-69
2023/08/31 10:39:00;;;;;;;3.67;2.60;;;;;;;18.59;66.69;100349.91;4938181;29;20449;-69
2023/08/31 10:41:35;;;;;;;7.40;3.40;;;;;;;17.89;72.29;100350.31;4934413;29;20503;-69
2023/08/31 10:44:24;;;;;;;3.80;2.40;;;;;;;17.53;71.94;100351.91;4936353;29;20416;-70
2023/08/31 10:46:54;;;;;;;6.13;2.53;;;;;;;17.63;72.42;100346.56;4939911;29;20422;-68
2023/08/31 10:49:25;;;;;;;3.77;3.23;;;;;;;17.58;70.88;100355.53;4944994;29;20489;-69
2023/08/31 10:51:57;;;;;;;7.00;2.40;;;;;;;17.62;70.90;100351.22;4956245;28;20476;-69
2023/08/31 10:54:34;;;;;;;2.43;2.20;;;;;;;17.78;71.68;100355.72;4941455;29;20447;-68
2023/08/31 10:57:06;;;;;;;5.53;1.83;;;;;;;17.93;70.50;100356.91;4944214;29;20452;-68
2023/08/31 10:59:50;;;;;;;4.20;2.90;;;;;;;18.01;70.25;100353.69;4940331;29;20395;-69
2023/08/31 11:02:35;;;;;;;3.37;2.10;;;;;;;18.07;70.16;100360.84;4936432;29;20457;-69
2023/08/31 11:05:09;;;;;;;4.83;2.93;;;;;;;17.91;71.09;100364.59;4938913;28;20419;-67
2023/08/31 11:07:40;;;;;;;8.90;2.53;;;;;;;18.07;69.39;100358.94;4954910;28;20464;-70
2023/08/31 11:10:14;;;;;;;3.67;2.47;;;;;;;18.24;69.88;100351.38;4943917;29;20422;-69
2023/08/31 11:12:45;;;;;;;5.50;3.30;;;;;;;18.46;70.49;100351.19;4938279;28;20543;-69
2023/08/31 11:15:16;;;;;;;5.17;2.53;;;;;;;18.69;64.03;100346.41;4947926;29;20517;-70
2023/08/31 11:17:46;;;;;;;7.90;2.57;;;;;;;18.60;64.94;100341.44;4929915;29;20844;-71
2023/08/31 11:20:17;;;;;;;3.20;1.80;;;;;;;19.16;62.05;100333.38;4953990;28;20464;-69
2023/08/31 11:22:49;;;;;;;7.03;2.47;;;;;;;20.01;59.27;100333.63;4936432;29;20811;-70
2023/08/31 11:25:23;;;;;;;2.80;2.20;;;;;;;20.12;56.76;100327.84;4933659;29;20850;-69
2023/08/31 11:27:56;;;;;;;6.20;2.10;;;;;;;20.33;56.83;100332.19;4936175;29;20447;-68
2023/08/31 11:30:27;;;;;;;4.40;2.50;;;;;;;20.83;56.52;100330.31;4939123;29;20449;-68
2023/08/31 11:32:56;;;;;;;4.90;2.27;;;;;;;20.76;55.09;100327.91;4936410;29;20471;-69
2023/08/31 11:35:31;;;;;;;3.17;2.20;;;;;;;20.04;57.77;100320.19;4949254;29;20435;-68
2023/08/31 11:38:04;;;;;;;8.43;3.03;;;;;;;19.69;59.55;100325.72;4939714;29;20454;-69
2023/08/31 11:40:35;;;;;;;4.13;2.87;;;;;;;19.28;61.87;100320.19;4936495;29;20433;-69